sensor_id;sensor_type;location;lat;lon;timestamp;P1;durP1;ratioP1;P2;durP2;ratioP2
56039;SDS011;43937;41.366;2.072;2023-03-24T00:02:04;5.80;;;4.13;;
56039;SDS011;43937;41.366;2.072;2023-03-24T00:14:43;8.00;;;4.93;;
56039;SDS011;43937;41.366;2.072;2023-03-24T00:17:12;5.43;;;4.45;;
56039;SDS011;43937;41.366;2.072;2023-03-24T00:19:38;13.73;;;5.93;;
56039;SDS011;43937;41.366;2.072;2023-03-24T00:23:54;8.70;;;4.93;;
56039;SDS011;43937;41.366;2.072;2023-03-24T00:27:06;10.93;;;4.55;;
56039;SDS011;43937;41.366;2.072;2023-03-24T00:29:56;5.60;;;3.63;;
56039;SDS011;43937;41.366;2.072;2023-03-24T00:42:15;5.78;;;4.47;;
56039;SDS011;43937;41.366;2.072;2023-03-24T00:45:00;11.00;;;5.68;;
56039;SDS011;43937;41.366;2.072;2023-03-24T00:47:28;8.75;;;6.43;;
56039;SDS011;43937;41.366;2.072;2023-03-24T00:51:10;14.05;;;7.55;;
56039;SDS011;43937;41.366;2.072;2023-03-24T00:54:53;11.68;;;6.85;;
56039;SDS011;43937;41.366;2.072;2023-03-24T00:57:22;9.23;;;6.78;;
56039;SDS011;43937;41.366;2.072;2023-03-24T00:59:50;11.73;;;8.45;;
56039;SDS011;43937;41.366;2.072;2023-03-24T01:02:31;11.05;;;7.90;;
56039;SDS011;43937;41.366;2.072;2023-03-24T01:08:54;11.75;;;7.95;;
56039;SDS011;43937;41.366;2.072;2023-03-24T01:14:07;10.70;;;7.00;;
56039;SDS011;43937;41.366;2.072;2023-03-24T01:26:48;9.82;;;7.57;;
56039;SDS011;43937;41.366;2.072;2023-03-24T01:29:14;16.38;;;8.80;;
56039;SDS011;43937;41.366;2.072;2023-03-24T01:32:07;17.08;;;9.25;;
56039;SDS011;43937;41.366;2.072;2023-03-24T01:34:33;10.20;;;8.10;;
56039;SDS011;43937;41.366;2.072;2023-03-24T01:38:42;11.25;;;7.05;;
56039;SDS011;43937;41.366;2.072;2023-03-24T01:46:21;15.43;;;8.52;;
56039;SDS011;43937;41.366;2.072;2023-03-24T01:53:41;12.15;;;8.65;;
56039;SDS011;43937;41.366;2.072;2023-03-24T02:02:29;12.82;;;8.50;;
56039;SDS011;43937;41.366;2.072;2023-03-24T02:05:14;10.40;;;8.02;;
56039;SDS011;43937;41.366;2.072;2023-03-24T02:11:25;10.40;;;7.57;;
56039;SDS011;43937;41.366;2.072;2023-03-24T02:13:53;13.13;;;8.45;;
56039;SDS011;43937;41.366;2.072;2023-03-24T02:28:44;9.18;;;6.97;;
56039;SDS011;43937;41.366;2.072;2023-03-24T02:35:43;13.05;;;7.00;;
56039;SDS011;43937;41.366;2.072;2023-03-24T02:47:23;8.20;;;5.72;;
56039;SDS011;43937;41.366;2.072;2023-03-24T03:07:26;10.23;;;3.97;;
56039;SDS011;43937;41.366;2.072;2023-03-24T03:17:26;3.50;;;2.78;;
56039;SDS011;43937;41.366;2.072;2023-03-24T03:24:49;3.70;;;3.20;;
56039;SDS011;43937;41.366;2.072;2023-03-24T03:32:42;12.07;;;4.22;;
56039;SDS011;43937;41.366;2.072;2023-03-24T03:35:21;13.60;;;5.75;;
56039;SDS011;43937;41.366;2.072;2023-03-24T03:38:30;10.88;;;4.32;;
56039;SDS011;43937;41.366;2.072;2023-03-24T03:41:09;10.15;;;5.68;;
56039;SDS011;43937;41.366;2.072;2023-03-24T03:47:11;9.23;;;5.10;;
56039;SDS011;43937;41.366;2.072;2023-03-24T03:49:37;11.93;;;4.85;;
56039;SDS011;43937;41.366;2.072;2023-03-24T03:53:16;8.27;;;5.18;;
56039;SDS011;43937;41.366;2.072;2023-03-24T03:57:07;15.25;;;5.78;;
56039;SDS011;43937;41.366;2.072;2023-03-24T04:00:32;10.15;;;6.25;;
56039;SDS011;43937;41.366;2.072;2023-03-24T04:11:34;8.55;;;5.70;;
56039;SDS011;43937;41.366;2.072;2023-03-24T04:15:35;7.55;;;5.50;;
56039;SDS011;43937;41.366;2.072;2023-03-24T04:27:59;8.50;;;6.60;;
56039;SDS011;43937;41.366;2.072;2023-03-24T04:37:40;12.52;;;8.38;;
56039;SDS011;43937;41.366;2.072;2023-03-24T04:42:31;10.15;;;7.65;;
56039;SDS011;43937;41.366;2.072;2023-03-24T04:45:01;14.30;;;8.52;;
56039;SDS011;43937;41.366;2.072;2023-03-24T04:49:03;16.10;;;9.93;;
56039;SDS011;43937;41.366;2.072;2023-03-24T04:51:30;16.27;;;9.73;;
56039;SDS011;43937;41.366;2.072;2023-03-24T04:53:56;10.50;;;7.28;;
56039;SDS011;43937;41.366;2.072;2023-03-24T05:03:30;11.73;;;8.07;;
56039;SDS011;43937;41.366;2.072;2023-03-24T05:07:52;10.70;;;7.75;;
56039;SDS011;43937;41.366;2.072;2023-03-24T05:12:05;18.58;;;9.15;;
56039;SDS011;43937;41.366;2.072;2023-03-24T05:15:43;12.98;;;8.90;;
56039;SDS011;43937;41.366;2.072;2023-03-24T05:18:10;14.23;;;8.52;;
56039;SDS011;43937;41.366;2.072;2023-03-24T05:23:12;14.80;;;8.82;;
56039;SDS011;43937;41.366;2.072;2023-03-24T05:25:38;14.93;;;8.10;;
56039;SDS011;43937;41.366;2.072;2023-03-24T05:33:02;14.55;;;8.35;;
56039;SDS011;43937;41.366;2.072;2023-03-24T05:35:28;11.32;;;7.10;;
56039;SDS011;43937;41.366;2.072;2023-03-24T05:39:25;11.43;;;6.78;;
56039;SDS011;43937;41.366;2.072;2023-03-24T05:42:24;9.18;;;6.68;;
56039;SDS011;43937;41.366;2.072;2023-03-24T05:45:30;12.38;;;7.28;;
56039;SDS011;43937;41.366;2.072;2023-03-24T05:47:55;10.73;;;7.10;;
56039;SDS011;43937;41.366;2.072;2023-03-24T05:53:19;13.10;;;8.27;;
56039;SDS011;43937;41.366;2.072;2023-03-24T06:00:05;19.15;;;7.65;;
56039;SDS011;43937;41.366;2.072;2023-03-24T06:02:40;10.88;;;6.90;;
56039;SDS011;43937;41.366;2.072;2023-03-24T06:15:34;8.25;;;6.68;;
56039;SDS011;43937;41.366;2.072;2023-03-24T06:18:55;9.73;;;7.00;;
56039;SDS011;43937;41.366;2.072;2023-03-24T06:21:21;12.40;;;8.18;;
56039;SDS011;43937;41.366;2.072;2023-03-24T06:25:47;10.55;;;7.30;;
56039;SDS011;43937;41.366;2.072;2023-03-24T06:28:14;13.48;;;8.00;;
56039;SDS011;43937;41.366;2.072;2023-03-24T06:33:45;11.82;;;6.00;;
56039;SDS011;43937;41.366;2.072;2023-03-24T06:43:44;10.27;;;6.22;;
56039;SDS011;43937;41.366;2.072;2023-03-24T06:47:39;9.13;;;6.03;;
56039;SDS011;43937;41.366;2.072;2023-03-24T06:50:50;11.18;;;7.50;;
56039;SDS011;43937;41.366;2.072;2023-03-24T06:53:51;29.00;;;7.28;;
56039;SDS011;43937;41.366;2.072;2023-03-24T06:59:00;8.32;;;6.32;;
56039;SDS011;43937;41.366;2.072;2023-03-24T07:04:13;9.65;;;6.68;;
56039;SDS011;43937;41.366;2.072;2023-03-24T07:09:18;5.88;;;5.28;;
56039;SDS011;43937;41.366;2.072;2023-03-24T07:11:43;8.45;;;5.82;;
56039;SDS011;43937;41.366;2.072;2023-03-24T07:15:30;8.35;;;4.18;;
56039;SDS011;43937;41.366;2.072;2023-03-24T07:18:42;9.07;;;5.57;;
56039;SDS011;43937;41.366;2.072;2023-03-24T07:21:08;6.13;;;4.75;;
56039;SDS011;43937;41.366;2.072;2023-03-24T07:25:16;11.60;;;4.97;;
56039;SDS011;43937;41.366;2.072;2023-03-24T07:27:44;11.18;;;6.30;;
56039;SDS011;43937;41.366;2.072;2023-03-24T07:30:10;8.18;;;5.20;;
56039;SDS011;43937;41.366;2.072;2023-03-24T07:36:21;5.45;;;4.63;;
56039;SDS011;43937;41.366;2.072;2023-03-24T07:41:14;8.15;;;4.55;;
56039;SDS011;43937;41.366;2.072;2023-03-24T07:53:32;7.13;;;4.70;;
56039;SDS011;43937;41.366;2.072;2023-03-24T07:55:58;5.97;;;4.35;;
56039;SDS011;43937;41.366;2.072;2023-03-24T07:58:39;5.95;;;4.47;;
56039;SDS011;43937;41.366;2.072;2023-03-24T08:02:59;14.10;;;4.82;;
56039;SDS011;43937;41.366;2.072;2023-03-24T08:05:25;9.75;;;4.72;;
56039;SDS011;43937;41.366;2.072;2023-03-24T08:10:41;6.63;;;3.75;;
56039;SDS011;43937;41.366;2.072;2023-03-24T08:19:45;11.18;;;5.13;;
56039;SDS011;43937;41.366;2.072;2023-03-24T08:27:25;5.32;;;4.20;;
56039;SDS011;43937;41.366;2.072;2023-03-24T08:31:32;6.88;;;4.30;;
56039;SDS011;43937;41.366;2.072;2023-03-24T08:48:37;6.53;;;4.28;;
56039;SDS011;43937;41.366;2.072;2023-03-24T08:54:54;19.30;;;3.90;;
56039;SDS011;43937;41.366;2.072;2023-03-24T08:57:32;24.02;;;5.60;;
56039;SDS011;43937;41.366;2.072;2023-03-24T09:01:21;7.03;;;4.68;;
56039;SDS011;43937;41.366;2.072;2023-03-24T09:16:34;7.30;;;4.03;;
56039;SDS011;43937;41.366;2.072;2023-03-24T09:18:59;13.85;;;4.45;;
56039;SDS011;43937;41.366;2.072;2023-03-24T09:31:01;18.08;;;3.83;;
56039;SDS011;43937;41.366;2.072;2023-03-24T09:46:44;7.20;;;4.18;;
56039;SDS011;43937;41.366;2.072;2023-03-24T09:52:16;6.30;;;4.00;;
56039;SDS011;43937;41.366;2.072;2023-03-24T09:59:50;6.03;;;2.90;;
56039;SDS011;43937;41.366;2.072;2023-03-24T10:02:16;11.25;;;3.53;;
56039;SDS011;43937;41.366;2.072;2023-03-24T10:04:44;8.38;;;3.05;;
56039;SDS011;43937;41.366;2.072;2023-03-24T10:13:20;5.70;;;3.45;;
56039;SDS011;43937;41.366;2.072;2023-03-24T10:17:13;8.60;;;2.97;;
56039;SDS011;43937;41.366;2.072;2023-03-24T10:22:36;4.20;;;2.83;;
56039;SDS011;43937;41.366;2.072;2023-03-24T10:28:22;5.95;;;3.05;;
56039;SDS011;43937;41.366;2.072;2023-03-24T10:30:52;6.22;;;2.95;;
56039;SDS011;43937;41.366;2.072;2023-03-24T10:47:34;5.85;;;2.28;;
56039;SDS011;43937;41.366;2.072;2023-03-24T10:57:13;2.17;;;1.73;;
56039;SDS011;43937;41.366;2.072;2023-03-24T11:07:33;24.95;;;2.75;;
56039;SDS011;43937;41.366;2.072;2023-03-24T11:10:35;3.50;;;2.70;;
56039;SDS011;43937;41.366;2.072;2023-03-24T11:15:15;12.75;;;2.50;;
56039;SDS011;43937;41.366;2.072;2023-03-24T11:17:58;3.47;;;2.08;;
56039;SDS011;43937;41.366;2.072;2023-03-24T11:21:58;4.63;;;1.95;;
56039;SDS011;43937;41.366;2.072;2023-03-24T11:24:28;4.57;;;2.17;;
56039;SDS011;43937;41.366;2.072;2023-03-24T11:29:14;9.80;;;2.20;;
56039;SDS011;43937;41.366;2.072;2023-03-24T11:31:55;5.78;;;2.45;;
56039;SDS011;43937;41.366;2.072;2023-03-24T11:35:14;2.38;;;1.98;;
56039;SDS011;43937;41.366;2.072;2023-03-24T11:40:55;3.03;;;2.10;;
56039;SDS011;43937;41.366;2.072;2023-03-24T11:45:38;9.10;;;2.55;;
56039;SDS011;43937;41.366;2.072;2023-03-24T11:48:24;4.15;;;2.40;;
56039;SDS011;43937;41.366;2.072;2023-03-24T11:50:59;7.90;;;1.98;;
56039;SDS011;43937;41.366;2.072;2023-03-24T11:53:29;14.30;;;2.25;;
56039;SDS011;43937;41.366;2.072;2023-03-24T11:56:37;9.85;;;2.80;;
56039;SDS011;43937;41.366;2.072;2023-03-24T11:59:58;4.53;;;2.50;;
56039;SDS011;43937;41.366;2.072;2023-03-24T12:05:57;5.18;;;1.92;;
56039;SDS011;43937;41.366;2.072;2023-03-24T12:13:50;2.20;;;1.65;;
56039;SDS011;43937;41.366;2.072;2023-03-24T12:25:41;7.13;;;1.42;;
56039;SDS011;43937;41.366;2.072;2023-03-24T12:30:30;3.63;;;1.83;;
56039;SDS011;43937;41.366;2.072;2023-03-24T12:36:29;3.55;;;1.73;;
56039;SDS011;43937;41.366;2.072;2023-03-24T12:52:58;4.97;;;1.70;;
56039;SDS011;43937;41.366;2.072;2023-03-24T13:00:30;5.75;;;1.88;;
56039;SDS011;43937;41.366;2.072;2023-03-24T13:03:00;4.72;;;1.73;;
56039;SDS011;43937;41.366;2.072;2023-03-24T13:05:36;7.65;;;2.25;;
56039;SDS011;43937;41.366;2.072;2023-03-24T13:16:20;4.65;;;1.75;;
56039;SDS011;43937;41.366;2.072;2023-03-24T13:18:51;5.43;;;1.85;;
56039;SDS011;43937;41.366;2.072;2023-03-24T13:26:36;3.63;;;2.03;;
56039;SDS011;43937;41.366;2.072;2023-03-24T13:36:58;14.50;;;2.20;;
56039;SDS011;43937;41.366;2.072;2023-03-24T13:40:31;5.10;;;2.28;;
56039;SDS011;43937;41.366;2.072;2023-03-24T13:49:04;3.08;;;1.58;;
56039;SDS011;43937;41.366;2.072;2023-03-24T13:54:28;15.05;;;0.98;;
56039;SDS011;43937;41.366;2.072;2023-03-24T14:05:32;0.75;;;0.50;;
56039;SDS011;43937;41.366;2.072;2023-03-24T14:24:03;1.17;;;0.75;;
56039;SDS011;43937;41.366;2.072;2023-03-24T14:26:41;1.73;;;0.60;;
56039;SDS011;43937;41.366;2.072;2023-03-24T14:29:25;0.50;;;0.47;;
56039;SDS011;43937;41.366;2.072;2023-03-24T14:33:33;3.10;;;0.60;;
56039;SDS011;43937;41.366;2.072;2023-03-24T14:36:57;1.35;;;0.65;;
56039;SDS011;43937;41.366;2.072;2023-03-24T14:50:18;5.78;;;0.57;;
56039;SDS011;43937;41.366;2.072;2023-03-24T14:52:52;0.88;;;0.40;;
56039;SDS011;43937;41.366;2.072;2023-03-24T14:58:01;1.95;;;0.30;;
56039;SDS011;43937;41.366;2.072;2023-03-24T15:12:27;0.20;;;0.20;;
56039;SDS011;43937;41.366;2.072;2023-03-24T15:25:09;1.65;;;0.40;;
56039;SDS011;43937;41.366;2.072;2023-03-24T15:27:36;0.45;;;0.25;;
56039;SDS011;43937;41.366;2.072;2023-03-24T15:30:05;1.05;;;0.30;;
56039;SDS011;43937;41.366;2.072;2023-03-24T15:38:32;0.10;;;0.10;;
56039;SDS011;43937;41.366;2.072;2023-03-24T15:41:07;0.20;;;0.20;;
56039;SDS011;43937;41.366;2.072;2023-03-24T15:43:51;1.40;;;0.38;;
56039;SDS011;43937;41.366;2.072;2023-03-24T15:54:30;12.63;;;3.40;;
56039;SDS011;43937;41.366;2.072;2023-03-24T15:57:23;13.93;;;3.35;;
56039;SDS011;43937;41.366;2.072;2023-03-24T16:02:54;5.70;;;3.10;;
56039;SDS011;43937;41.366;2.072;2023-03-24T16:07:17;9.50;;;3.42;;
56039;SDS011;43937;41.366;2.072;2023-03-24T16:16:53;5.65;;;2.67;;
56039;SDS011;43937;41.366;2.072;2023-03-24T16:20:38;13.00;;;3.58;;
56039;SDS011;43937;41.366;2.072;2023-03-24T16:23:03;13.35;;;3.22;;
56039;SDS011;43937;41.366;2.072;2023-03-24T16:48:45;4.90;;;2.80;;
56039;SDS011;43937;41.366;2.072;2023-03-24T16:52:16;11.05;;;3.22;;
56039;SDS011;43937;41.366;2.072;2023-03-24T16:57:51;7.38;;;2.65;;
56039;SDS011;43937;41.366;2.072;2023-03-24T17:02:11;8.45;;;2.90;;
56039;SDS011;43937;41.366;2.072;2023-03-24T17:11:26;6.43;;;2.30;;
56039;SDS011;43937;41.366;2.072;2023-03-24T17:13:52;11.23;;;3.63;;
56039;SDS011;43937;41.366;2.072;2023-03-24T17:21:09;5.75;;;2.42;;
56039;SDS011;43937;41.366;2.072;2023-03-24T17:23:37;6.35;;;2.80;;
56039;SDS011;43937;41.366;2.072;2023-03-24T17:27:15;5.25;;;2.70;;
56039;SDS011;43937;41.366;2.072;2023-03-24T17:34:52;4.60;;;2.55;;
56039;SDS011;43937;41.366;2.072;2023-03-24T17:44:36;6.05;;;3.00;;
56039;SDS011;43937;41.366;2.072;2023-03-24T17:51:01;7.20;;;2.55;;
56039;SDS011;43937;41.366;2.072;2023-03-24T17:55:40;7.10;;;2.35;;
56039;SDS011;43937;41.366;2.072;2023-03-24T17:59:41;8.00;;;2.42;;
56039;SDS011;43937;41.366;2.072;2023-03-24T18:08:22;3.28;;;2.25;;
56039;SDS011;43937;41.366;2.072;2023-03-24T18:12:36;3.00;;;2.05;;
56039;SDS011;43937;41.366;2.072;2023-03-24T18:15:03;3.45;;;1.98;;
56039;SDS011;43937;41.366;2.072;2023-03-24T18:17:31;7.18;;;1.92;;
56039;SDS011;43937;41.366;2.072;2023-03-24T18:22:54;11.10;;;2.50;;
56039;SDS011;43937;41.366;2.072;2023-03-24T18:26:43;15.45;;;4.05;;
56039;SDS011;43937;41.366;2.072;2023-03-24T18:29:08;7.05;;;2.90;;
56039;SDS011;43937;41.366;2.072;2023-03-24T18:31:34;5.50;;;2.83;;
56039;SDS011;43937;41.366;2.072;2023-03-24T18:34:00;4.95;;;2.20;;
56039;SDS011;43937;41.366;2.072;2023-03-24T18:42:44;2.95;;;2.03;;
56039;SDS011;43937;41.366;2.072;2023-03-24T18:46:16;4.68;;;2.53;;
56039;SDS011;43937;41.366;2.072;2023-03-24T18:48:42;4.25;;;2.42;;
56039;SDS011;43937;41.366;2.072;2023-03-24T18:51:07;4.55;;;2.15;;
56039;SDS011;43937;41.366;2.072;2023-03-24T18:53:33;3.00;;;2.10;;
56039;SDS011;43937;41.366;2.072;2023-03-24T18:55:59;3.60;;;2.33;;
56039;SDS011;43937;41.366;2.072;2023-03-24T18:58:26;5.30;;;2.38;;
56039;SDS011;43937;41.366;2.072;2023-03-24T19:00:52;3.60;;;2.28;;
56039;SDS011;43937;41.366;2.072;2023-03-24T19:03:19;6.90;;;2.45;;
56039;SDS011;43937;41.366;2.072;2023-03-24T19:05:47;3.45;;;1.55;;
56039;SDS011;43937;41.366;2.072;2023-03-24T19:10:23;6.75;;;2.80;;
56039;SDS011;43937;41.366;2.072;2023-03-24T19:12:49;13.57;;;3.92;;
56039;SDS011;43937;41.366;2.072;2023-03-24T19:16:43;7.97;;;3.03;;
56039;SDS011;43937;41.366;2.072;2023-03-24T19:19:09;5.03;;;2.28;;
56039;SDS011;43937;41.366;2.072;2023-03-24T19:23:52;4.57;;;1.90;;
56039;SDS011;43937;41.366;2.072;2023-03-24T19:26:44;4.97;;;2.63;;
56039;SDS011;43937;41.366;2.072;2023-03-24T19:29:10;4.30;;;2.15;;
56039;SDS011;43937;41.366;2.072;2023-03-24T19:31:36;16.60;;;3.53;;
56039;SDS011;43937;41.366;2.072;2023-03-24T19:37:59;6.63;;;2.95;;
56039;SDS011;43937;41.366;2.072;2023-03-24T19:41:47;4.90;;;2.55;;
56039;SDS011;43937;41.366;2.072;2023-03-24T19:46:11;5.75;;;2.88;;
56039;SDS011;43937;41.366;2.072;2023-03-24T19:50:31;11.63;;;2.58;;
56039;SDS011;43937;41.366;2.072;2023-03-24T19:52:56;16.77;;;2.92;;
56039;SDS011;43937;41.366;2.072;2023-03-24T19:55:22;3.83;;;2.05;;
56039;SDS011;43937;41.366;2.072;2023-03-24T19:59:37;2.50;;;1.70;;
56039;SDS011;43937;41.366;2.072;2023-03-24T20:07:17;9.68;;;2.63;;
56039;SDS011;43937;41.366;2.072;2023-03-24T20:10:43;4.05;;;2.00;;
56039;SDS011;43937;41.366;2.072;2023-03-24T20:18:35;4.75;;;2.53;;
56039;SDS011;43937;41.366;2.072;2023-03-24T20:21:41;4.63;;;2.72;;
56039;SDS011;43937;41.366;2.072;2023-03-24T20:25:10;10.35;;;2.60;;
56039;SDS011;43937;41.366;2.072;2023-03-24T20:27:37;4.03;;;2.42;;
56039;SDS011;43937;41.366;2.072;2023-03-24T20:30:03;4.93;;;2.13;;
56039;SDS011;43937;41.366;2.072;2023-03-24T20:34:37;3.13;;;2.08;;
56039;SDS011;43937;41.366;2.072;2023-03-24T20:37:03;7.35;;;3.70;;
56039;SDS011;43937;41.366;2.072;2023-03-24T20:39:30;5.75;;;2.42;;
56039;SDS011;43937;41.366;2.072;2023-03-24T20:43:58;5.97;;;2.63;;
56039;SDS011;43937;41.366;2.072;2023-03-24T20:46:24;19.60;;;9.75;;
56039;SDS011;43937;41.366;2.072;2023-03-24T20:50:53;8.80;;;3.28;;
56039;SDS011;43937;41.366;2.072;2023-03-24T20:53:19;11.90;;;5.90;;
56039;SDS011;43937;41.366;2.072;2023-03-24T20:55:54;5.72;;;3.67;;
56039;SDS011;43937;41.366;2.072;2023-03-24T21:01:14;7.50;;;3.45;;
56039;SDS011;43937;41.366;2.072;2023-03-24T21:03:47;9.43;;;4.07;;
56039;SDS011;43937;41.366;2.072;2023-03-24T21:06:15;13.80;;;3.13;;
56039;SDS011;43937;41.366;2.072;2023-03-24T21:08:41;6.07;;;3.25;;
56039;SDS011;43937;41.366;2.072;2023-03-24T21:15:14;8.07;;;2.95;;
56039;SDS011;43937;41.366;2.072;2023-03-24T21:21:51;6.97;;;3.28;;
56039;SDS011;43937;41.366;2.072;2023-03-24T21:24:50;10.85;;;3.78;;
56039;SDS011;43937;41.366;2.072;2023-03-24T21:29:13;5.75;;;3.08;;
56039;SDS011;43937;41.366;2.072;2023-03-24T21:33:43;7.97;;;3.40;;
56039;SDS011;43937;41.366;2.072;2023-03-24T21:43:33;11.10;;;3.50;;
56039;SDS011;43937;41.366;2.072;2023-03-24T21:46:54;5.72;;;3.28;;
56039;SDS011;43937;41.366;2.072;2023-03-24T21:52:11;6.38;;;2.63;;
56039;SDS011;43937;41.366;2.072;2023-03-24T21:58:52;4.82;;;3.58;;
56039;SDS011;43937;41.366;2.072;2023-03-24T22:02:12;3.42;;;2.80;;
56039;SDS011;43937;41.366;2.072;2023-03-24T22:04:38;6.25;;;3.15;;
56039;SDS011;43937;41.366;2.072;2023-03-24T22:12:19;8.95;;;2.75;;
56039;SDS011;43937;41.366;2.072;2023-03-24T22:16:54;14.65;;;3.80;;
56039;SDS011;43937;41.366;2.072;2023-03-24T22:19:20;7.60;;;4.57;;
56039;SDS011;43937;41.366;2.072;2023-03-24T22:22:54;8.43;;;4.30;;
56039;SDS011;43937;41.366;2.072;2023-03-24T22:27:00;5.15;;;3.33;;
56039;SDS011;43937;41.366;2.072;2023-03-24T22:30:45;6.38;;;4.03;;
56039;SDS011;43937;41.366;2.072;2023-03-24T22:34:45;5.75;;;3.53;;
56039;SDS011;43937;41.366;2.072;2023-03-24T22:38:54;5.60;;;3.50;;
56039;SDS011;43937;41.366;2.072;2023-03-24T22:50:52;8.93;;;3.70;;
56039;SDS011;43937;41.366;2.072;2023-03-24T22:53:17;4.88;;;3.00;;
56039;SDS011;43937;41.366;2.072;2023-03-24T22:55:43;9.48;;;3.85;;
56039;SDS011;43937;41.366;2.072;2023-03-24T22:58:09;9.43;;;3.78;;
56039;SDS011;43937;41.366;2.072;2023-03-24T23:01:56;8.77;;;3.88;;
56039;SDS011;43937;41.366;2.072;2023-03-24T23:04:23;10.90;;;3.40;;
56039;SDS011;43937;41.366;2.072;2023-03-24T23:09:26;5.57;;;3.20;;
56039;SDS011;43937;41.366;2.072;2023-03-24T23:12:29;5.65;;;3.33;;
56039;SDS011;43937;41.366;2.072;2023-03-24T23:14:55;6.03;;;2.97;;
56039;SDS011;43937;41.366;2.072;2023-03-24T23:17:20;13.23;;;3.22;;
56039;SDS011;43937;41.366;2.072;2023-03-24T23:23:07;7.20;;;3.22;;
56039;SDS011;43937;41.366;2.072;2023-03-24T23:32:19;4.18;;;2.70;;
56039;SDS011;43937;41.366;2.072;2023-03-24T23:42:00;4.68;;;2.38;;
56039;SDS011;43937;41.366;2.072;2023-03-24T23:47:30;3.40;;;2.50;;
56039;SDS011;43937;41.366;2.072;2023-03-24T23:57:01;5.88;;;2.42;;
